This is the latest recevied weather packets stored in our database for station/object N5PLO-10. If no packets are shown the sender has not sent any weather packets the latest 10 day(s).
| Time | Temp. | Humidity | Pressure | Rain* | Wind** | Luminosity | Snow |
|---|---|---|---|---|---|---|---|
| 1777574985 | 28.89° C | 76% | 1015.4 hPa | 0 mm | - | 228 W/m² | - |
| 1777574682 | 29.44° C | 74% | 1015.4 hPa | 0 mm | - | 244 W/m² | - |
| 1777574379 | 30.56° C | 74% | 1015.5 hPa | 0 mm | - | 686 W/m² | - |
| 1777574074 | 29.44° C | 74% | 1015.6 hPa | 0 mm | - | 709 W/m² | - |
| 1777573769 | 29.44° C | 78% | 1015.5 hPa | 0 mm | - | 499 W/m² | - |
| 1777573465 | 28.89° C | 79% | 1015.6 hPa | 0 mm | - | 372 W/m² | - |
| 1777573161 | 28.33° C | 79% | 1015.5 hPa | 0 mm | - | 350 W/m² | - |
| 1777572858 | 27.78° C | 81% | 1015.6 hPa | 0 mm | - | 312 W/m² | - |
| 1777572554 | 28.33° C | 79% | 1015.8 hPa | 0 mm | - | 143 W/m² | - |
| 1777572249 | 29.44° C | 77% | 1015.8 hPa | 0 mm | - | 329 W/m² | - |
| 1777571945 | 28.33° C | 79% | 1015.6 hPa | 0 mm | - | 667 W/m² | - |
| 1777571639 | 28.33° C | 80% | 1015.7 hPa | 0 mm | - | 234 W/m² | - |
| 1777571337 | 28.33° C | 80% | 1015.6 hPa | 0 mm | - | 259 W/m² | - |
| 1777571033 | 28.33° C | 81% | 1015.7 hPa | 0 mm | - | 264 W/m² | - |
| 1777570729 | 27.78° C | 81% | 1015.5 hPa | 0 mm | - | 197 W/m² | - |
| 1777570426 | 27.78° C | 80% | 1015.6 hPa | 0 mm | - | 174 W/m² | - |
| 1777570122 | 27.78° C | 81% | 1015.4 hPa | 0 mm | - | 147 W/m² | - |
| 1777569818 | 27.78° C | 80% | 1015.2 hPa | 0 mm | - | 219 W/m² | - |
| 1777569513 | 27.22° C | 83% | 1015 hPa | 0 mm | - | 247 W/m² | - |
| 1777569210 | 27.22° C | 84% | 1014.8 hPa | 0 mm | - | 240 W/m² | - |
| 1777568907 | 27.78° C | 81% | 1015 hPa | 0 mm | - | 180 W/m² | - |
| 1777568603 | 27.78° C | 80% | 1015.2 hPa | 0 mm | - | 166 W/m² | - |
| 1777568301 | 27.78° C | 80% | 1015.1 hPa | 0 mm | - | 367 W/m² | - |
| 1777567997 | 27.22° C | 82% | 1015.1 hPa | 0 mm | - | 321 W/m² | - |
| 1777567694 | 26.67° C | 84% | 1015.1 hPa | 0 mm | - | 665 W/m² | - |
* Rain latest hour (hover to see other rain measurements)
** Current wind speed in m/s (hover to see current wind gust speed)